sensor_id;sensor_type;location;lat;lon;timestamp;pressure;altitude;pressure_sealevel;temperature;humidity
12781;BME280;6454;43.304;24.344;2024-02-04T00:00:13;100682.75;;;6.77;69.58
12781;BME280;6454;43.304;24.344;2024-02-04T00:02:39;100668.22;;;6.97;69.27
12781;BME280;6454;43.304;24.344;2024-02-04T00:05:04;100663.03;;;7.00;67.47
12781;BME280;6454;43.304;24.344;2024-02-04T00:07:30;100667.03;;;7.23;67.69
12781;BME280;6454;43.304;24.344;2024-02-04T00:09:55;100669.41;;;7.45;66.40
12781;BME280;6454;43.304;24.344;2024-02-04T00:12:21;100664.13;;;7.58;67.21
12781;BME280;6454;43.304;24.344;2024-02-04T00:14:47;100645.56;;;7.60;66.04
12781;BME280;6454;43.304;24.344;2024-02-04T00:17:15;100659.69;;;7.72;66.57
12781;BME280;6454;43.304;24.344;2024-02-04T00:19:40;100660.69;;;7.87;65.39
12781;BME280;6454;43.304;24.344;2024-02-04T00:22:06;100626.81;;;7.83;65.80
12781;BME280;6454;43.304;24.344;2024-02-04T00:24:32;100640.66;;;7.96;64.20
12781;BME280;6454;43.304;24.344;2024-02-04T00:26:57;100647.22;;;7.95;65.12
12781;BME280;6454;43.304;24.344;2024-02-04T00:29:23;100645.59;;;7.94;64.04
12781;BME280;6454;43.304;24.344;2024-02-04T00:31:48;100638.69;;;8.02;63.67
12781;BME280;6454;43.304;24.344;2024-02-04T00:34:14;100652.22;;;8.22;65.13
12781;BME280;6454;43.304;24.344;2024-02-04T00:36:39;100654.44;;;8.20;64.51
12781;BME280;6454;43.304;24.344;2024-02-04T00:39:04;100641.84;;;8.19;65.13
12781;BME280;6454;43.304;24.344;2024-02-04T00:41:32;100639.41;;;8.17;63.91
12781;BME280;6454;43.304;24.344;2024-02-04T00:43:58;100638.19;;;8.33;63.95
12781;BME280;6454;43.304;24.344;2024-02-04T00:46:23;100627.75;;;8.35;63.40
12781;BME280;6454;43.304;24.344;2024-02-04T00:48:49;100634.59;;;8.38;63.42
12781;BME280;6454;43.304;24.344;2024-02-04T00:51:14;100636.75;;;8.41;64.28
12781;BME280;6454;43.304;24.344;2024-02-04T00:53:42;100639.50;;;8.41;64.74
12781;BME280;6454;43.304;24.344;2024-02-04T00:56:08;100633.44;;;8.44;64.01
12781;BME280;6454;43.304;24.344;2024-02-04T00:58:35;100619.56;;;8.35;63.65
12781;BME280;6454;43.304;24.344;2024-02-04T01:01:00;100629.00;;;8.48;64.44
12781;BME280;6454;43.304;24.344;2024-02-04T01:03:26;100626.56;;;8.47;63.32
12781;BME280;6454;43.304;24.344;2024-02-04T01:05:51;100630.19;;;8.42;64.61
12781;BME280;6454;43.304;24.344;2024-02-04T01:08:17;100614.06;;;8.35;64.28
12781;BME280;6454;43.304;24.344;2024-02-04T01:10:42;100620.91;;;8.38;64.37
12781;BME280;6454;43.304;24.344;2024-02-04T01:13:08;100605.63;;;8.32;63.32
12781;BME280;6454;43.304;24.344;2024-02-04T01:15:34;100612.78;;;8.28;64.65
12781;BME280;6454;43.304;24.344;2024-02-04T01:17:59;100615.22;;;8.29;64.26
12781;BME280;6454;43.304;24.344;2024-02-04T01:20:25;100604.00;;;8.26;64.34
12781;BME280;6454;43.304;24.344;2024-02-04T01:22:50;100594.53;;;8.13;63.75
12781;BME280;6454;43.304;24.344;2024-02-04T01:25:15;100604.91;;;8.16;63.65
12781;BME280;6454;43.304;24.344;2024-02-04T01:27:41;100608.06;;;8.00;64.44
12781;BME280;6454;43.304;24.344;2024-02-04T01:30:07;100590.78;;;8.04;65.31
12781;BME280;6454;43.304;24.344;2024-02-04T01:32:32;100592.28;;;8.20;65.00
12781;BME280;6454;43.304;24.344;2024-02-04T01:34:58;100602.66;;;8.28;64.35
12781;BME280;6454;43.304;24.344;2024-02-04T01:37:23;100605.72;;;8.17;63.79
12781;BME280;6454;43.304;24.344;2024-02-04T01:39:49;100597.31;;;8.08;64.21
12781;BME280;6454;43.304;24.344;2024-02-04T01:42:14;100607.03;;;8.24;64.83
12781;BME280;6454;43.304;24.344;2024-02-04T01:44:40;100600.34;;;8.41;64.94
12781;BME280;6454;43.304;24.344;2024-02-04T01:47:05;100606.78;;;8.55;63.03
12781;BME280;6454;43.304;24.344;2024-02-04T01:49:31;100598.09;;;8.48;64.79
12781;BME280;6454;43.304;24.344;2024-02-04T01:51:57;100611.63;;;8.63;63.17
12781;BME280;6454;43.304;24.344;2024-02-04T01:54:23;100592.09;;;8.69;63.67
12781;BME280;6454;43.304;24.344;2024-02-04T01:56:51;100614.72;;;8.80;62.24
12781;BME280;6454;43.304;24.344;2024-02-04T01:59:18;100615.69;;;8.89;62.97
12781;BME280;6454;43.304;24.344;2024-02-04T02:01:45;100598.75;;;8.87;63.88
12781;BME280;6454;43.304;24.344;2024-02-04T02:04:12;100597.91;;;8.86;63.08
12781;BME280;6454;43.304;24.344;2024-02-04T02:06:39;100600.84;;;8.95;63.36
12781;BME280;6454;43.304;24.344;2024-02-04T02:09:08;100584.53;;;8.85;62.39
12781;BME280;6454;43.304;24.344;2024-02-04T02:11:45;100597.34;;;8.89;62.90
12781;BME280;6454;43.304;24.344;2024-02-04T02:14:19;100573.84;;;8.83;62.74
12781;BME280;6454;43.304;24.344;2024-02-04T02:16:48;100574.50;;;8.99;62.64
12781;BME280;6454;43.304;24.344;2024-02-04T02:22:02;100585.31;;;9.09;62.05
12781;BME280;6454;43.304;24.344;2024-02-04T02:24:38;100577.16;;;9.04;61.75
12781;BME280;6454;43.304;24.344;2024-02-04T02:27:05;100561.56;;;8.99;62.23
12781;BME280;6454;43.304;24.344;2024-02-04T02:29:31;100570.94;;;9.17;61.65
12781;BME280;6454;43.304;24.344;2024-02-04T02:31:58;100567.69;;;9.15;60.63
12781;BME280;6454;43.304;24.344;2024-02-04T02:34:25;100581.31;;;9.02;61.91
12781;BME280;6454;43.304;24.344;2024-02-04T02:36:56;100575.06;;;8.96;62.03
12781;BME280;6454;43.304;24.344;2024-02-04T02:39:28;100595.22;;;9.05;61.73
12781;BME280;6454;43.304;24.344;2024-02-04T02:41:59;100584.88;;;9.02;61.38
12781;BME280;6454;43.304;24.344;2024-02-04T02:44:26;100586.03;;;8.96;60.99
12781;BME280;6454;43.304;24.344;2024-02-04T02:46:55;100582.88;;;8.84;61.59
12781;BME280;6454;43.304;24.344;2024-02-04T02:49:21;100586.38;;;8.89;61.98
12781;BME280;6454;43.304;24.344;2024-02-04T02:51:47;100563.28;;;8.95;61.34
12781;BME280;6454;43.304;24.344;2024-02-04T02:54:12;100578.13;;;9.13;60.68
12781;BME280;6454;43.304;24.344;2024-02-04T02:56:38;100576.84;;;9.06;62.33
12781;BME280;6454;43.304;24.344;2024-02-04T02:59:03;100572.25;;;9.01;62.82
12781;BME280;6454;43.304;24.344;2024-02-04T03:01:30;100582.00;;;9.12;61.87
12781;BME280;6454;43.304;24.344;2024-02-04T03:03:56;100584.66;;;9.17;62.74
12781;BME280;6454;43.304;24.344;2024-02-04T03:06:22;100589.25;;;9.22;62.74
12781;BME280;6454;43.304;24.344;2024-02-04T03:08:47;100582.44;;;9.19;62.18
12781;BME280;6454;43.304;24.344;2024-02-04T03:11:13;100590.91;;;9.23;63.04
12781;BME280;6454;43.304;24.344;2024-02-04T03:13:39;100586.22;;;9.23;62.42
12781;BME280;6454;43.304;24.344;2024-02-04T03:16:12;100589.94;;;9.32;61.10
12781;BME280;6454;43.304;24.344;2024-02-04T03:18:41;100580.75;;;9.23;62.07
12781;BME280;6454;43.304;24.344;2024-02-04T03:21:16;100578.88;;;9.19;62.46
12781;BME280;6454;43.304;24.344;2024-02-04T03:23:43;100576.94;;;9.19;61.93
12781;BME280;6454;43.304;24.344;2024-02-04T03:26:09;100585.66;;;9.26;61.74
12781;BME280;6454;43.304;24.344;2024-02-04T03:28:35;100591.56;;;9.33;61.11
12781;BME280;6454;43.304;24.344;2024-02-04T03:31:01;100588.22;;;9.18;62.30
12781;BME280;6454;43.304;24.344;2024-02-04T03:33:27;100593.72;;;9.18;62.23
12781;BME280;6454;43.304;24.344;2024-02-04T03:35:52;100600.47;;;9.25;61.61
12781;BME280;6454;43.304;24.344;2024-02-04T03:38:18;100597.06;;;9.33;61.53
12781;BME280;6454;43.304;24.344;2024-02-04T03:40:44;100576.88;;;9.24;62.23
12781;BME280;6454;43.304;24.344;2024-02-04T03:43:10;100594.97;;;9.25;61.70
12781;BME280;6454;43.304;24.344;2024-02-04T03:45:35;100591.31;;;9.11;61.44
12781;BME280;6454;43.304;24.344;2024-02-04T03:48:01;100595.56;;;9.22;62.17
12781;BME280;6454;43.304;24.344;2024-02-04T03:50:26;100586.22;;;9.23;61.26
12781;BME280;6454;43.304;24.344;2024-02-04T03:52:52;100603.34;;;9.15;61.94
12781;BME280;6454;43.304;24.344;2024-02-04T03:55:18;100601.31;;;9.02;62.15
12781;BME280;6454;43.304;24.344;2024-02-04T03:57:44;100605.84;;;9.12;61.97
12781;BME280;6454;43.304;24.344;2024-02-04T04:00:10;100602.44;;;9.20;61.68
12781;BME280;6454;43.304;24.344;2024-02-04T04:02:35;100599.69;;;9.01;62.10
12781;BME280;6454;43.304;24.344;2024-02-04T04:05:01;100606.06;;;8.91;63.97
12781;BME280;6454;43.304;24.344;2024-02-04T04:07:26;100609.75;;;8.82;64.85
12781;BME280;6454;43.304;24.344;2024-02-04T04:09:51;100592.22;;;8.83;64.87
12781;BME280;6454;43.304;24.344;2024-02-04T04:12:17;100586.63;;;8.93;63.13
12781;BME280;6454;43.304;24.344;2024-02-04T04:14:42;100594.00;;;8.92;63.08
12781;BME280;6454;43.304;24.344;2024-02-04T04:17:08;100603.75;;;8.80;64.70
12781;BME280;6454;43.304;24.344;2024-02-04T04:19:33;100602.44;;;8.77;63.91
12781;BME280;6454;43.304;24.344;2024-02-04T04:22:01;100595.31;;;8.76;64.73
12781;BME280;6454;43.304;24.344;2024-02-04T04:24:27;100585.69;;;8.79;63.82
12781;BME280;6454;43.304;24.344;2024-02-04T04:26:53;100577.53;;;8.50;65.58
12781;BME280;6454;43.304;24.344;2024-02-04T04:29:18;100585.44;;;8.52;65.01
12781;BME280;6454;43.304;24.344;2024-02-04T04:31:43;100582.28;;;8.40;67.00
12781;BME280;6454;43.304;24.344;2024-02-04T04:34:09;100575.88;;;8.49;66.34
12781;BME280;6454;43.304;24.344;2024-02-04T04:36:35;100589.19;;;8.61;66.42
12781;BME280;6454;43.304;24.344;2024-02-04T04:39:01;100581.66;;;8.48;66.04
12781;BME280;6454;43.304;24.344;2024-02-04T04:41:26;100576.19;;;8.48;65.89
12781;BME280;6454;43.304;24.344;2024-02-04T04:43:52;100584.41;;;8.48;66.24
12781;BME280;6454;43.304;24.344;2024-02-04T04:46:17;100597.41;;;8.61;67.02
12781;BME280;6454;43.304;24.344;2024-02-04T04:48:43;100599.19;;;8.70;66.40
12781;BME280;6454;43.304;24.344;2024-02-04T04:51:08;100595.75;;;8.60;66.86
12781;BME280;6454;43.304;24.344;2024-02-04T04:53:34;100596.19;;;8.43;67.69
12781;BME280;6454;43.304;24.344;2024-02-04T04:56:00;100596.38;;;8.52;66.61
12781;BME280;6454;43.304;24.344;2024-02-04T04:58:25;100607.22;;;8.62;67.40
12781;BME280;6454;43.304;24.344;2024-02-04T05:00:50;100598.50;;;8.60;65.61
12781;BME280;6454;43.304;24.344;2024-02-04T05:03:16;100610.59;;;8.54;67.69
12781;BME280;6454;43.304;24.344;2024-02-04T05:05:41;100606.78;;;8.55;67.84
12781;BME280;6454;43.304;24.344;2024-02-04T05:08:07;100606.25;;;8.53;67.91
12781;BME280;6454;43.304;24.344;2024-02-04T05:10:32;100611.88;;;8.66;67.01
12781;BME280;6454;43.304;24.344;2024-02-04T05:12:58;100599.50;;;8.69;65.14
12781;BME280;6454;43.304;24.344;2024-02-04T05:15:23;100612.69;;;8.67;65.96
12781;BME280;6454;43.304;24.344;2024-02-04T05:17:50;100607.34;;;8.52;66.18
12781;BME280;6454;43.304;24.344;2024-02-04T05:20:16;100608.25;;;8.71;67.10
12781;BME280;6454;43.304;24.344;2024-02-04T05:22:41;100597.81;;;8.73;65.21
12781;BME280;6454;43.304;24.344;2024-02-04T05:25:07;100609.06;;;8.71;65.47
12781;BME280;6454;43.304;24.344;2024-02-04T05:27:35;100592.44;;;8.63;66.24
12781;BME280;6454;43.304;24.344;2024-02-04T05:30:02;100606.66;;;8.65;66.43
12781;BME280;6454;43.304;24.344;2024-02-04T05:32:27;100601.19;;;8.65;65.45
12781;BME280;6454;43.304;24.344;2024-02-04T05:34:52;100597.81;;;8.73;65.43
12781;BME280;6454;43.304;24.344;2024-02-04T05:37:18;100604.34;;;8.77;64.63
12781;BME280;6454;43.304;24.344;2024-02-04T05:39:43;100623.34;;;8.68;66.15
12781;BME280;6454;43.304;24.344;2024-02-04T05:42:09;100620.28;;;8.70;65.44
12781;BME280;6454;43.304;24.344;2024-02-04T05:44:34;100615.81;;;8.79;64.59
12781;BME280;6454;43.304;24.344;2024-02-04T05:47:00;100611.09;;;8.84;64.62
12781;BME280;6454;43.304;24.344;2024-02-04T05:49:25;100619.06;;;8.81;65.10
12781;BME280;6454;43.304;24.344;2024-02-04T05:51:51;100604.16;;;8.68;65.43
12781;BME280;6454;43.304;24.344;2024-02-04T05:54:16;100614.72;;;8.80;65.67
12781;BME280;6454;43.304;24.344;2024-02-04T05:56:41;100599.22;;;8.94;65.44
12781;BME280;6454;43.304;24.344;2024-02-04T05:59:07;100617.69;;;9.07;64.41
12781;BME280;6454;43.304;24.344;2024-02-04T06:01:32;100602.31;;;8.87;64.50
12781;BME280;6454;43.304;24.344;2024-02-04T06:03:58;100616.19;;;8.96;65.11
12781;BME280;6454;43.304;24.344;2024-02-04T06:06:23;100615.81;;;9.03;65.60
12781;BME280;6454;43.304;24.344;2024-02-04T06:08:49;100621.94;;;9.18;65.13
12781;BME280;6454;43.304;24.344;2024-02-04T06:11:15;100603.78;;;9.22;63.42
12781;BME280;6454;43.304;24.344;2024-02-04T06:13:42;100589.75;;;9.05;64.87
12781;BME280;6454;43.304;24.344;2024-02-04T06:16:08;100605.53;;;9.13;64.84
12781;BME280;6454;43.304;24.344;2024-02-04T06:18:35;100607.03;;;9.24;64.00
12781;BME280;6454;43.304;24.344;2024-02-04T06:21:03;100617.31;;;9.37;64.02
12781;BME280;6454;43.304;24.344;2024-02-04T06:23:28;100617.59;;;9.36;63.82
12781;BME280;6454;43.304;24.344;2024-02-04T06:25:54;100632.78;;;9.28;64.09
12781;BME280;6454;43.304;24.344;2024-02-04T06:28:19;100633.03;;;9.32;63.40
12781;BME280;6454;43.304;24.344;2024-02-04T06:30:45;100644.66;;;9.42;64.27
12781;BME280;6454;43.304;24.344;2024-02-04T06:33:10;100632.56;;;9.43;63.47
12781;BME280;6454;43.304;24.344;2024-02-04T06:35:35;100615.75;;;9.31;63.92
12781;BME280;6454;43.304;24.344;2024-02-04T06:38:01;100644.44;;;9.39;63.94
12781;BME280;6454;43.304;24.344;2024-02-04T06:40:26;100634.88;;;9.36;63.83
12781;BME280;6454;43.304;24.344;2024-02-04T06:42:52;100633.25;;;9.54;63.51
12781;BME280;6454;43.304;24.344;2024-02-04T06:45:17;100649.50;;;9.69;62.74
12781;BME280;6454;43.304;24.344;2024-02-04T06:47:43;100639.63;;;9.68;62.45
12781;BME280;6454;43.304;24.344;2024-02-04T06:50:10;100627.31;;;9.66;62.81
12781;BME280;6454;43.304;24.344;2024-02-04T06:52:40;100630.66;;;9.63;63.88
12781;BME280;6454;43.304;24.344;2024-02-04T06:55:06;100631.56;;;9.77;62.86
12781;BME280;6454;43.304;24.344;2024-02-04T06:57:31;100643.72;;;9.89;63.12
12781;BME280;6454;43.304;24.344;2024-02-04T06:59:57;100626.56;;;9.79;62.07
12781;BME280;6454;43.304;24.344;2024-02-04T07:02:22;100638.59;;;9.83;62.68
12781;BME280;6454;43.304;24.344;2024-02-04T07:04:47;100629.78;;;9.86;62.72
12781;BME280;6454;43.304;24.344;2024-02-04T07:07:13;100632.88;;;9.98;62.23
12781;BME280;6454;43.304;24.344;2024-02-04T07:09:38;100621.81;;;10.03;61.80
12781;BME280;6454;43.304;24.344;2024-02-04T07:12:04;100633.53;;;10.08;61.82
12781;BME280;6454;43.304;24.344;2024-02-04T07:14:30;100631.34;;;9.92;61.54
12781;BME280;6454;43.304;24.344;2024-02-04T07:16:55;100636.06;;;10.05;61.85
12781;BME280;6454;43.304;24.344;2024-02-04T07:19:21;100628.66;;;10.05;61.69
12781;BME280;6454;43.304;24.344;2024-02-04T07:21:47;100645.28;;;10.14;61.62
12781;BME280;6454;43.304;24.344;2024-02-04T07:24:13;100645.06;;;10.10;61.65
12781;BME280;6454;43.304;24.344;2024-02-04T07:26:38;100643.72;;;10.08;61.88
12781;BME280;6454;43.304;24.344;2024-02-04T07:29:04;100640.66;;;10.09;61.25
12781;BME280;6454;43.304;24.344;2024-02-04T07:31:29;100639.25;;;10.31;60.19
12781;BME280;6454;43.304;24.344;2024-02-04T07:33:55;100636.16;;;10.19;61.13
12781;BME280;6454;43.304;24.344;2024-02-04T07:36:21;100651.41;;;10.25;60.96
12781;BME280;6454;43.304;24.344;2024-02-04T07:38:46;100657.13;;;10.28;61.04
12781;BME280;6454;43.304;24.344;2024-02-04T07:41:14;100641.69;;;10.32;60.74
12781;BME280;6454;43.304;24.344;2024-02-04T07:43:40;100647.00;;;10.42;59.96
12781;BME280;6454;43.304;24.344;2024-02-04T07:46:07;100653.09;;;10.39;60.36
12781;BME280;6454;43.304;24.344;2024-02-04T07:48:33;100653.94;;;10.40;60.72
12781;BME280;6454;43.304;24.344;2024-02-04T07:50:59;100650.63;;;10.56;60.51
12781;BME280;6454;43.304;24.344;2024-02-04T07:53:25;100670.72;;;10.70;60.50
12781;BME280;6454;43.304;24.344;2024-02-04T07:55:50;100663.38;;;10.80;60.20
12781;BME280;6454;43.304;24.344;2024-02-04T07:58:16;100633.44;;;10.64;59.91
12781;BME280;6454;43.304;24.344;2024-02-04T08:00:41;100644.22;;;10.74;59.87
12781;BME280;6454;43.304;24.344;2024-02-04T08:03:07;100653.22;;;10.94;58.98
12781;BME280;6454;43.304;24.344;2024-02-04T08:05:33;100643.75;;;11.13;60.12
12781;BME280;6454;43.304;24.344;2024-02-04T08:08:00;100656.69;;;11.13;58.57
12781;BME280;6454;43.304;24.344;2024-02-04T08:10:26;100660.78;;;11.15;58.31
12781;BME280;6454;43.304;24.344;2024-02-04T08:12:51;100630.50;;;11.02;58.54
12781;BME280;6454;43.304;24.344;2024-02-04T08:15:19;100637.53;;;11.08;57.91
12781;BME280;6454;43.304;24.344;2024-02-04T08:17:44;100660.06;;;11.10;59.19
12781;BME280;6454;43.304;24.344;2024-02-04T08:20:10;100666.75;;;11.04;58.50
12781;BME280;6454;43.304;24.344;2024-02-04T08:22:36;100659.13;;;11.01;58.64
12781;BME280;6454;43.304;24.344;2024-02-04T08:25:01;100646.00;;;10.98;58.77
12781;BME280;6454;43.304;24.344;2024-02-04T08:27:27;100654.66;;;11.05;59.00
12781;BME280;6454;43.304;24.344;2024-02-04T08:29:53;100633.47;;;10.92;58.29
12781;BME280;6454;43.304;24.344;2024-02-04T08:32:19;100655.25;;;11.02;58.15
12781;BME280;6454;43.304;24.344;2024-02-04T08:34:44;100648.31;;;10.91;58.59
12781;BME280;6454;43.304;24.344;2024-02-04T08:37:10;100660.16;;;11.05;59.49
12781;BME280;6454;43.304;24.344;2024-02-04T08:39:35;100649.38;;;11.08;58.68
12781;BME280;6454;43.304;24.344;2024-02-04T08:42:01;100640.81;;;11.10;58.75
12781;BME280;6454;43.304;24.344;2024-02-04T08:44:26;100639.78;;;11.19;58.73
12781;BME280;6454;43.304;24.344;2024-02-04T08:46:52;100634.91;;;11.16;57.60
12781;BME280;6454;43.304;24.344;2024-02-04T08:49:17;100628.78;;;11.19;57.14
12781;BME280;6454;43.304;24.344;2024-02-04T08:51:43;100627.66;;;11.20;56.57
12781;BME280;6454;43.304;24.344;2024-02-04T08:54:08;100630.81;;;11.27;57.64
12781;BME280;6454;43.304;24.344;2024-02-04T08:56:34;100635.91;;;11.34;56.91
12781;BME280;6454;43.304;24.344;2024-02-04T08:58:59;100641.91;;;11.36;56.26
12781;BME280;6454;43.304;24.344;2024-02-04T09:01:26;100641.09;;;11.35;55.94
12781;BME280;6454;43.304;24.344;2024-02-04T09:03:52;100647.31;;;11.41;56.64
12781;BME280;6454;43.304;24.344;2024-02-04T09:06:18;100653.44;;;11.38;56.81
12781;BME280;6454;43.304;24.344;2024-02-04T09:08:43;100661.78;;;11.33;56.98
12781;BME280;6454;43.304;24.344;2024-02-04T09:11:09;100664.03;;;11.31;56.38
12781;BME280;6454;43.304;24.344;2024-02-04T09:13:34;100649.38;;;11.35;56.10
12781;BME280;6454;43.304;24.344;2024-02-04T09:16:00;100656.56;;;11.45;56.61
12781;BME280;6454;43.304;24.344;2024-02-04T09:18:25;100657.59;;;11.49;56.65
12781;BME280;6454;43.304;24.344;2024-02-04T09:20:50;100644.84;;;11.40;56.77
12781;BME280;6454;43.304;24.344;2024-02-04T09:23:16;100666.03;;;11.53;57.21
12781;BME280;6454;43.304;24.344;2024-02-04T09:25:41;100653.22;;;11.48;55.70
12781;BME280;6454;43.304;24.344;2024-02-04T09:28:07;100663.00;;;11.54;56.71
12781;BME280;6454;43.304;24.344;2024-02-04T09:30:32;100671.03;;;11.51;56.75
12781;BME280;6454;43.304;24.344;2024-02-04T09:32:58;100679.06;;;11.61;56.90
12781;BME280;6454;43.304;24.344;2024-02-04T09:35:23;100679.41;;;11.59;56.19
12781;BME280;6454;43.304;24.344;2024-02-04T09:37:48;100677.63;;;11.63;55.14
12781;BME280;6454;43.304;24.344;2024-02-04T09:40:14;100684.50;;;11.66;55.80
12781;BME280;6454;43.304;24.344;2024-02-04T09:42:40;100689.28;;;11.60;56.23
12781;BME280;6454;43.304;24.344;2024-02-04T09:45:06;100690.53;;;11.54;56.05
12781;BME280;6454;43.304;24.344;2024-02-04T09:47:32;100671.97;;;11.46;54.70
12781;BME280;6454;43.304;24.344;2024-02-04T09:50:00;100691.72;;;11.62;55.09
12781;BME280;6454;43.304;24.344;2024-02-04T09:52:29;100699.78;;;11.58;55.06
12781;BME280;6454;43.304;24.344;2024-02-04T09:54:59;100690.91;;;11.48;55.63
12781;BME280;6454;43.304;24.344;2024-02-04T09:57:26;100692.78;;;11.52;56.05
12781;BME280;6454;43.304;24.344;2024-02-04T09:59:51;100686.94;;;11.54;55.24
12781;BME280;6454;43.304;24.344;2024-02-04T10:02:17;100686.63;;;11.55;55.67
12781;BME280;6454;43.304;24.344;2024-02-04T10:04:42;100690.09;;;11.47;55.97
12781;BME280;6454;43.304;24.344;2024-02-04T10:07:08;100668.19;;;11.42;56.60
12781;BME280;6454;43.304;24.344;2024-02-04T10:09:34;100673.59;;;11.47;55.42
12781;BME280;6454;43.304;24.344;2024-02-04T10:11:59;100672.38;;;11.53;56.46
12781;BME280;6454;43.304;24.344;2024-02-04T10:14:25;100682.16;;;11.59;56.55
12781;BME280;6454;43.304;24.344;2024-02-04T10:16:50;100674.50;;;11.56;56.72
12781;BME280;6454;43.304;24.344;2024-02-04T10:19:16;100684.41;;;11.57;55.58
12781;BME280;6454;43.304;24.344;2024-02-04T10:21:42;100683.25;;;11.58;55.65
12781;BME280;6454;43.304;24.344;2024-02-04T10:24:07;100686.94;;;11.67;55.50
12781;BME280;6454;43.304;24.344;2024-02-04T10:26:33;100663.50;;;11.56;56.33
12781;BME280;6454;43.304;24.344;2024-02-04T10:29:03;100658.09;;;11.65;56.61
12781;BME280;6454;43.304;24.344;2024-02-04T10:31:29;100663.19;;;11.71;56.47
12781;BME280;6454;43.304;24.344;2024-02-04T10:33:55;100664.00;;;11.72;55.30
12781;BME280;6454;43.304;24.344;2024-02-04T10:36:20;100644.59;;;11.63;55.34
12781;BME280;6454;43.304;24.344;2024-02-04T10:38:46;100646.03;;;11.74;56.27
12781;BME280;6454;43.304;24.344;2024-02-04T10:41:15;100654.59;;;11.86;55.94
12781;BME280;6454;43.304;24.344;2024-02-04T10:43:42;100633.19;;;11.83;56.36
12781;BME280;6454;43.304;24.344;2024-02-04T10:46:22;100628.69;;;11.87;54.73
12781;BME280;6454;43.304;24.344;2024-02-04T10:48:52;100623.06;;;11.92;56.35
12781;BME280;6454;43.304;24.344;2024-02-04T10:51:24;100609.03;;;12.03;56.10
12781;BME280;6454;43.304;24.344;2024-02-04T10:53:53;100599.97;;;12.02;56.57
12781;BME280;6454;43.304;24.344;2024-02-04T10:56:30;100607.47;;;12.10;54.36
12781;BME280;6454;43.304;24.344;2024-02-04T10:58:59;100600.03;;;12.11;56.54
12781;BME280;6454;43.304;24.344;2024-02-04T11:01:26;100591.75;;;12.11;54.38
12781;BME280;6454;43.304;24.344;2024-02-04T11:03:52;100590.81;;;12.15;54.85
12781;BME280;6454;43.304;24.344;2024-02-04T11:06:20;100595.28;;;12.25;54.38
12781;BME280;6454;43.304;24.344;2024-02-04T11:08:46;100583.50;;;12.11;54.41
12781;BME280;6454;43.304;24.344;2024-02-04T11:11:12;100583.06;;;12.17;54.41
12781;BME280;6454;43.304;24.344;2024-02-04T11:13:39;100587.25;;;12.15;54.92
12781;BME280;6454;43.304;24.344;2024-02-04T11:16:14;100565.22;;;12.15;55.46
12781;BME280;6454;43.304;24.344;2024-02-04T11:18:56;100566.56;;;12.26;54.33
12781;BME280;6454;43.304;24.344;2024-02-04T11:26:29;100549.75;;;12.58;54.65
12781;BME280;6454;43.304;24.344;2024-02-04T11:28:56;100558.56;;;12.77;54.01
12781;BME280;6454;43.304;24.344;2024-02-04T11:31:21;100541.88;;;12.82;52.61
12781;BME280;6454;43.304;24.344;2024-02-04T11:33:50;100533.75;;;12.86;54.00
12781;BME280;6454;43.304;24.344;2024-02-04T11:36:17;100552.94;;;12.99;52.13
12781;BME280;6454;43.304;24.344;2024-02-04T11:38:43;100526.38;;;13.03;52.92
12781;BME280;6454;43.304;24.344;2024-02-04T11:41:24;100537.28;;;13.17;53.60
12781;BME280;6454;43.304;24.344;2024-02-04T11:43:55;100536.00;;;13.32;51.38
12781;BME280;6454;43.304;24.344;2024-02-04T11:46:21;100533.75;;;13.34;50.76
12781;BME280;6454;43.304;24.344;2024-02-04T11:48:53;100545.13;;;13.41;51.30
12781;BME280;6454;43.304;24.344;2024-02-04T11:51:23;100559.41;;;13.43;50.29
12781;BME280;6454;43.304;24.344;2024-02-04T11:53:50;100542.38;;;13.49;51.37
12781;BME280;6454;43.304;24.344;2024-02-04T11:56:18;100529.03;;;13.43;51.36
12781;BME280;6454;43.304;24.344;2024-02-04T11:58:44;100528.06;;;13.47;51.54
12781;BME280;6454;43.304;24.344;2024-02-04T12:01:10;100570.16;;;13.61;51.45
12781;BME280;6454;43.304;24.344;2024-02-04T12:03:36;100546.25;;;13.57;51.68
12781;BME280;6454;43.304;24.344;2024-02-04T12:06:03;100537.34;;;13.60;50.54
12781;BME280;6454;43.304;24.344;2024-02-04T12:08:31;100545.31;;;13.61;50.76
12781;BME280;6454;43.304;24.344;2024-02-04T12:10:57;100531.81;;;13.60;49.77
12781;BME280;6454;43.304;24.344;2024-02-04T12:13:24;100515.88;;;13.48;50.66
12781;BME280;6454;43.304;24.344;2024-02-04T12:15:49;100513.94;;;13.49;50.51
12781;BME280;6454;43.304;24.344;2024-02-04T12:18:15;100548.22;;;13.65;49.74
12781;BME280;6454;43.304;24.344;2024-02-04T12:20:46;100518.00;;;13.60;48.65
12781;BME280;6454;43.304;24.344;2024-02-04T12:23:12;100508.75;;;13.56;50.03
12781;BME280;6454;43.304;24.344;2024-02-04T12:25:40;100535.56;;;13.64;49.64
12781;BME280;6454;43.304;24.344;2024-02-04T12:28:06;100504.19;;;13.51;50.61
12781;BME280;6454;43.304;24.344;2024-02-04T12:30:32;100498.97;;;13.67;50.40
12781;BME280;6454;43.304;24.344;2024-02-04T12:33:02;100507.91;;;13.81;49.00
12781;BME280;6454;43.304;24.344;2024-02-04T12:35:29;100508.25;;;13.88;49.91
12781;BME280;6454;43.304;24.344;2024-02-04T12:37:56;100526.13;;;13.91;48.96
12781;BME280;6454;43.304;24.344;2024-02-04T12:40:30;100470.88;;;13.82;50.21
12781;BME280;6454;43.304;24.344;2024-02-04T12:42:57;100488.38;;;14.03;49.91
12781;BME280;6454;43.304;24.344;2024-02-04T12:45:24;100490.66;;;14.01;49.29
12781;BME280;6454;43.304;24.344;2024-02-04T12:47:51;100478.44;;;14.02;49.59
12781;BME280;6454;43.304;24.344;2024-02-04T12:50:17;100469.84;;;14.04;50.32
12781;BME280;6454;43.304;24.344;2024-02-04T12:52:44;100458.81;;;13.95;50.13
12781;BME280;6454;43.304;24.344;2024-02-04T12:55:25;100455.41;;;13.98;50.65
12781;BME280;6454;43.304;24.344;2024-02-04T12:58:06;100457.88;;;13.91;50.17